| time (UTC) | temp C | wind direction | speed KPH | gust KPH | rain 1hr cm | rain 24hr cm | rain mn cm | humidity % | barometer mb |
| 20260509054005 | 28 | 291 | 1.6 | 8.0 | 0.00 | 0.00 | 0.00 | 13 | 994.2 |
| 20260509053504 | 28 | 299 | 3.2 | 8.0 | 0.00 | 0.00 | 0.00 | 13 | 994.2 |
| 20260509053004 | 28 | 302 | 3.2 | 8.0 | 0.00 | 0.00 | 0.00 | 13 | 994.2 |
| 20260509052504 | 27 | 298 | 1.6 | 6.4 | 0.00 | 0.00 | 0.00 | 14 | 994.2 |
| 20260509052004 | 27 | 289 | 0.0 | 6.4 | 0.00 | 0.00 | 0.00 | 15 | 994.4 |
| 20260509051505 | 28 | 211 | 0.0 | 4.8 | 0.00 | 0.00 | 0.00 | 15 | 994.4 |
| 20260509051004 | 28 | 207 | 0.0 | 4.8 | 0.00 | 0.00 | 0.00 | 16 | 994.4 |
| 20260509050505 | 28 | 179 | 0.0 | 4.8 | 0.00 | 0.00 | 0.00 | 16 | 994.4 |
| 20260509050004 | 28 | 178 | 0.0 | 4.8 | 0.00 | 0.00 | 0.00 | 15 | 994.4 |
| 20260509045504 | 29 | 0 | 0.0 | 0.0 | 0.00 | 0.00 | 0.00 | 13 | 994.4 |
| 20260509044004 | 29 | 301 | 1.6 | 14.5 | 0.00 | 0.00 | 0.00 | 11 | 994.1 |
| 20260509043504 | 30 | 297 | 3.2 | 17.7 | 0.00 | 0.00 | 0.00 | 11 | 994.0 |
| 20260509043005 | 30 | 293 | 4.8 | 25.7 | 0.00 | 0.00 | 0.00 | 11 | 994.0 |
| 20260509042504 | 30 | 293 | 4.8 | 25.7 | 0.00 | 0.00 | 0.00 | 11 | 994.0 |
| 20260509042004 | 30 | 302 | 8.0 | 38.6 | 0.00 | 0.00 | 0.00 | 11 | 993.8 |
| 20260509041504 | 30 | 303 | 9.7 | 38.6 | 0.00 | 0.00 | 0.00 | 11 | 993.6 |
| 20260509041005 | 30 | 298 | 8.0 | 27.4 | 0.00 | 0.00 | 0.00 | 11 | 993.6 |
| 20260509040504 | 30 | 300 | 11.3 | 30.6 | 0.00 | 0.00 | 0.00 | 11 | 993.5 |
| 20260509040005 | 30 | 305 | 14.5 | 37.0 | 0.00 | 0.00 | 0.00 | 11 | 993.5 |
| 20260509035505 | 30 | 308 | 12.9 | 37.0 | 0.00 | 0.00 | 0.00 | 11 | 993.3 |
| 20260509034504 | 30 | 310 | 11.3 | 35.4 | 0.00 | 0.00 | 0.00 | 11 | 993.0 |
| 20260509034004 | 30 | 304 | 12.9 | 35.4 | 0.00 | 0.00 | 0.00 | 11 | 992.9 |
| 20260509033504 | 30 | 296 | 8.0 | 33.8 | 0.00 | 0.00 | 0.00 | 11 | 992.9 |
| 20260509033004 | 30 | 305 | 6.4 | 32.2 | 0.00 | 0.00 | 0.00 | 11 | 992.9 |
| 20260509032504 | 31 | 309 | 8.0 | 30.6 | 0.00 | 0.00 | 0.00 | 12 | 992.8 |
| 20260509032004 | 31 | 298 | 9.7 | 33.8 | 0.00 | 0.00 | 0.00 | 11 | 992.8 |
| 20260509031506 | 31 | 304 | 9.7 | 33.8 | 0.00 | 0.00 | 0.00 | 11 | 992.7 |
| 20260509031005 | 31 | 308 | 11.3 | 40.2 | 0.00 | 0.00 | 0.00 | 11 | 992.5 |
| 20260509030004 | 31 | 311 | 11.3 | 38.6 | 0.00 | 0.00 | 0.00 | 11 | 992.4 |
| 20260509025505 | 31 | 302 | 12.9 | 38.6 | 0.00 | 0.00 | 0.00 | 11 | 992.4 |
| 20260509025004 | 31 | 316 | 11.3 | 37.0 | 0.00 | 0.00 | 0.00 | 12 | 992.4 |
| 20260509024005 | 31 | 319 | 12.9 | 40.2 | 0.00 | 0.00 | 0.00 | 12 | 992.3 |
| 20260509023504 | 31 | 308 | 11.3 | 35.4 | 0.00 | 0.00 | 0.00 | 12 | 992.1 |
| 20260509023005 | 31 | 306 | 12.9 | 33.8 | 0.00 | 0.00 | 0.00 | 12 | 992.1 |
| 20260509022004 | 31 | 306 | 12.9 | 38.6 | 0.00 | 0.00 | 0.00 | 12 | 992.0 |
| 20260509021004 | 31 | 300 | 14.5 | 41.8 | 0.00 | 0.00 | 0.00 | 12 | 991.9 |
| 20260509020504 | 31 | 300 | 16.1 | 40.2 | 0.00 | 0.00 | 0.00 | 12 | 991.9 |
| 20260509020005 | 31 | 305 | 16.1 | 45.1 | 0.00 | 0.00 | 0.00 | 12 | 991.9 |
| 20260509015505 | 31 | 307 | 16.1 | 45.1 | 0.00 | 0.00 | 0.00 | 12 | 991.9 |
| 20260509015004 | 31 | 311 | 14.5 | 37.0 | 0.00 | 0.00 | 0.00 | 12 | 991.9 |
| 20260509014504 | 32 | 313 | 12.9 | 43.5 | 0.00 | 0.00 | 0.00 | 12 | 991.9 |
| 20260509013504 | 32 | 297 | 11.3 | 38.6 | 0.00 | 0.00 | 0.00 | 12 | 991.9 |
| 20260509012504 | 32 | 322 | 11.3 | 37.0 | 0.00 | 0.00 | 0.00 | 12 | 991.9 |
| 20260509011505 | 32 | 291 | 11.3 | 40.2 | 0.00 | 0.00 | 0.00 | 12 | 991.9 |
| 20260509011005 | 32 | 288 | 11.3 | 40.2 | 0.00 | 0.00 | 0.00 | 12 | 991.9 |
| 20260509010504 | 33 | 270 | 9.7 | 38.6 | 0.00 | 0.00 | 0.00 | 11 | 991.9 |
| 20260509010004 | 33 | 266 | 8.0 | 35.4 | 0.00 | 0.00 | 0.00 | 11 | 991.9 |
| 20260509005004 | 33 | 280 | 8.0 | 38.6 | 0.00 | 0.00 | 0.00 | 11 | 991.9 |
| 20260509004504 | 33 | 283 | 6.4 | 35.4 | 0.00 | 0.00 | 0.00 | 11 | 991.9 |
| 20260509002504 | 35 | 298 | 9.7 | 27.4 | 0.00 | 0.00 | 0.00 | 11 | 991.9 |
| 20260509001504 | 35 | 300 | 11.3 | 37.0 | 0.00 | 0.00 | 0.00 | 10 | 991.6 |
| 20260509001004 | 35 | 313 | 12.9 | 38.6 | 0.00 | 0.00 | 0.00 | 10 | 991.7 |
| 20260509000504 | 35 | 308 | 12.9 | 38.6 | 0.00 | 0.00 | 0.00 | 10 | 991.6 |
| 20260509000005 | 35 | 305 | 14.5 | 32.2 | 0.00 | 0.00 | 0.00 | 9 | 991.7 |
| 20260508235504 | 36 | 302 | 9.7 | 32.2 | 0.00 | 0.00 | 0.00 | 9 | 991.8 |
| 20260508235004 | 36 | 299 | 6.4 | 33.8 | 0.00 | 0.00 | 0.00 | 9 | 991.8 |
| 20260508234504 | 36 | 298 | 8.0 | 33.8 | 0.00 | 0.00 | 0.00 | 9 | 991.9 |
| 20260508234004 | 36 | 294 | 8.0 | 35.4 | 0.00 | 0.00 | 0.00 | 9 | 991.9 |
| 20260508233504 | 36 | 301 | 8.0 | 35.4 | 0.00 | 0.00 | 0.00 | 9 | 991.9 |
| 20260508233004 | 36 | 299 | 8.0 | 29.0 | 0.00 | 0.00 | 0.00 | 9 | 991.9 |
| 20260508232504 | 36 | 303 | 9.7 | 40.2 | 0.00 | 0.00 | 0.00 | 9 | 991.9 |
| 20260508232004 | 36 | 304 | 8.0 | 40.2 | 0.00 | 0.00 | 0.00 | 9 | 991.9 |
| 20260508231504 | 36 | 284 | 3.2 | 20.9 | 0.00 | 0.00 | 0.00 | 9 | 992.0 |
| 20260508230505 | 36 | 282 | 4.8 | 22.5 | 0.00 | 0.00 | 0.00 | 9 | 992.1 |
| 20260508230004 | 36 | 288 | 4.8 | 20.9 | 0.00 | 0.00 | 0.00 | 9 | 992.2 |
| 20260508225504 | 36 | 271 | 3.2 | 20.9 | 0.00 | 0.00 | 0.00 | 9 | 992.2 |
| 20260508224504 | 36 | 261 | 6.4 | 25.7 | 0.00 | 0.00 | 0.00 | 9 | 992.4 |
| 20260508224005 | 36 | 260 | 4.8 | 22.5 | 0.00 | 0.00 | 0.00 | 9 | 992.4 |
| 20260508223505 | 36 | 251 | 3.2 | 20.9 | 0.00 | 0.00 | 0.00 | 9 | 992.5 |
| 20260508222504 | 36 | 280 | 4.8 | 33.8 | 0.00 | 0.00 | 0.00 | 9 | 992.6 |
| 20260508222004 | 36 | 290 | 3.2 | 20.9 | 0.00 | 0.00 | 0.00 | 9 | 992.6 |
| 20260508221504 | 36 | 277 | 4.8 | 33.8 | 0.00 | 0.00 | 0.00 | 9 | 992.8 |
| 20260508221004 | 35 | 261 | 6.4 | 33.8 | 0.00 | 0.00 | 0.00 | 10 | 992.8 |
| 20260508220504 | 35 | 260 | 6.4 | 27.4 | 0.00 | 0.00 | 0.00 | 10 | 992.8 |
| 20260508220004 | 35 | 273 | 6.4 | 27.4 | 0.00 | 0.00 | 0.00 | 10 | 993.0 |
| 20260508215504 | 35 | 274 | 6.4 | 27.4 | 0.00 | 0.00 | 0.00 | 10 | 993.0 |
| 20260508215005 | 35 | 261 | 4.8 | 27.4 | 0.00 | 0.00 | 0.00 | 10 | 993.0 |
| 20260508214504 | 36 | 239 | 3.2 | 19.3 | 0.00 | 0.00 | 0.00 | 10 | 993.1 |
| 20260508214004 | 35 | 242 | 4.8 | 25.7 | 0.00 | 0.00 | 0.00 | 10 | 993.3 |
| 20260508213505 | 35 | 229 | 6.4 | 29.0 | 0.00 | 0.00 | 0.00 | 10 | 993.5 |
| 20260508213004 | 35 | 246 | 6.4 | 29.0 | 0.00 | 0.00 | 0.00 | 10 | 993.5 |
| 20260508212504 | 35 | 278 | 4.8 | 22.5 | 0.00 | 0.00 | 0.00 | 10 | 993.6 |
| 20260508212004 | 35 | 255 | 3.2 | 17.7 | 0.00 | 0.00 | 0.00 | 10 | 993.7 |
| 20260508211504 | 35 | 261 | 6.4 | 30.6 | 0.00 | 0.00 | 0.00 | 11 | 993.9 |
| 20260508211004 | 35 | 248 | 9.7 | 32.2 | 0.00 | 0.00 | 0.00 | 11 | 993.9 |
| 20260508210504 | 35 | 249 | 8.0 | 32.2 | 0.00 | 0.00 | 0.00 | 10 | 993.9 |
| 20260508210004 | 35 | 274 | 6.4 | 29.0 | 0.00 | 0.00 | 0.00 | 10 | 994.0 |
| 20260508205504 | 35 | 294 | 8.0 | 25.7 | 0.00 | 0.00 | 0.00 | 10 | 994.1 |
| 20260508205004 | 35 | 302 | 8.0 | 25.7 | 0.00 | 0.00 | 0.00 | 11 | 994.1 |
| 20260508204004 | 35 | 279 | 6.4 | 24.1 | 0.00 | 0.00 | 0.00 | 11 | 994.2 |
| 20260508203004 | 35 | 276 | 4.8 | 24.1 | 0.00 | 0.00 | 0.00 | 11 | 994.5 |
| 20260508202504 | 35 | 296 | 8.0 | 25.7 | 0.00 | 0.00 | 0.00 | 11 | 994.6 |
| 20260508202004 | 34 | 302 | 9.7 | 29.0 | 0.00 | 0.00 | 0.00 | 11 | 994.7 |
| 20260508201504 | 35 | 296 | 8.0 | 29.0 | 0.00 | 0.00 | 0.00 | 11 | 994.7 |
| 20260508200504 | 35 | 302 | 8.0 | 27.4 | 0.00 | 0.00 | 0.00 | 11 | 995.1 |
| 20260508200004 | 35 | 298 | 4.8 | 27.4 | 0.00 | 0.00 | 0.00 | 12 | 995.1 |
| 20260508195504 | 35 | 289 | 6.4 | 27.4 | 0.00 | 0.00 | 0.00 | 12 | 995.1 |
| 20260508195005 | 34 | 290 | 8.0 | 22.5 | 0.00 | 0.00 | 0.00 | 12 | 995.3 |
| 20260508194504 | 34 | 294 | 8.0 | 27.4 | 0.00 | 0.00 | 0.00 | 12 | 995.5 |
| 20260508194005 | 34 | 297 | 8.0 | 27.4 | 0.00 | 0.00 | 0.00 | 12 | 995.6 |
| 20260508193504 | 34 | 297 | 8.0 | 27.4 | 0.00 | 0.00 | 0.00 | 12 | 995.6 |
| 20260508193004 | 34 | 290 | 4.8 | 19.3 | 0.00 | 0.00 | 0.00 | 12 | 995.6 |
| 20260508192504 | 33 | 274 | 4.8 | 22.5 | 0.00 | 0.00 | 0.00 | 13 | 995.6 |
| 20260508192004 | 33 | 282 | 6.4 | 22.5 | 0.00 | 0.00 | 0.00 | 13 | 995.7 |
| 20260508191504 | 33 | 297 | 6.4 | 29.0 | 0.00 | 0.00 | 0.00 | 13 | 995.9 |
| 20260508191004 | 33 | 303 | 9.7 | 29.0 | 0.00 | 0.00 | 0.00 | 13 | 996.0 |
| 20260508190504 | 33 | 298 | 6.4 | 22.5 | 0.00 | 0.00 | 0.00 | 13 | 996.1 |
| 20260508190004 | 33 | 288 | 4.8 | 22.5 | 0.00 | 0.00 | 0.00 | 13 | 996.1 |
| 20260508185504 | 33 | 294 | 6.4 | 22.5 | 0.00 | 0.00 | 0.00 | 13 | 996.2 |
| 20260508184504 | 33 | 242 | 3.2 | 16.1 | 0.00 | 0.00 | 0.00 | 14 | 996.2 |
| 20260508183004 | 32 | 296 | 4.8 | 14.5 | 0.00 | 0.00 | 0.00 | 14 | 996.5 |
| 20260508182504 | 32 | 325 | 4.8 | 17.7 | 0.00 | 0.00 | 0.00 | 14 | 996.6 |
| 20260508182004 | 32 | 321 | 6.4 | 17.7 | 0.00 | 0.00 | 0.00 | 15 | 996.6 |
| 20260508181504 | 32 | 289 | 4.8 | 14.5 | 0.00 | 0.00 | 0.00 | 15 | 996.6 |
| 20260508181004 | 32 | 222 | 3.2 | 16.1 | 0.00 | 0.00 | 0.00 | 14 | 996.7 |
| 20260508180504 | 32 | 208 | 4.8 | 17.7 | 0.00 | 0.00 | 0.00 | 14 | 996.7 |
| 20260508180004 | 32 | 206 | 3.2 | 17.7 | 0.00 | 0.00 | 0.00 | 14 | 996.7 |
| 20260508175504 | 32 | 281 | 1.6 | 14.5 | 0.00 | 0.00 | 0.00 | 14 | 996.8 |
| 20260508175004 | 32 | 280 | 1.6 | 14.5 | 0.00 | 0.00 | 0.00 | 14 | 996.9 |
| 20260508174504 | 31 | 227 | 1.6 | 17.7 | 0.00 | 0.00 | 0.00 | 14 | 996.9 |
| 20260508174004 | 31 | 221 | 3.2 | 17.7 | 0.00 | 0.00 | 0.00 | 15 | 997.1 |
| 20260508173504 | 30 | 133 | 3.2 | 9.7 | 0.00 | 0.00 | 0.00 | 15 | 997.1 |
| 20260508173004 | 30 | 142 | 3.2 | 9.7 | 0.00 | 0.00 | 0.00 | 15 | 997.1 |
| 20260508172505 | 30 | 138 | 3.2 | 9.7 | 0.00 | 0.00 | 0.00 | 15 | 997.2 |
| 20260508172004 | 29 | 118 | 3.2 | 9.7 | 0.00 | 0.00 | 0.00 | 16 | 997.1 |
| 20260508170504 | 28 | 128 | 3.2 | 11.3 | 0.00 | 0.00 | 0.00 | 16 | 997.3 |
| 20260508170004 | 28 | 95 | 3.2 | 8.0 | 0.00 | 0.00 | 0.00 | 17 | 997.3 |
| 20260508165505 | 28 | 80 | 4.8 | 9.7 | 0.00 | 0.00 | 0.00 | 17 | 997.4 |
| 20260508165004 | 28 | 66 | 3.2 | 9.7 | 0.00 | 0.00 | 0.00 | 17 | 997.5 |
| 20260508163504 | 27 | 63 | 1.6 | 8.0 | 0.00 | 0.00 | 0.00 | 18 | 997.7 |
| 20260508163004 | 26 | 37 | 0.0 | 4.8 | 0.00 | 0.00 | 0.00 | 18 | 997.7 |
| 20260508162504 | 26 | 34 | 1.6 | 4.8 | 0.00 | 0.00 | 0.00 | 18 | 997.7 |
| 20260508162004 | 26 | 62 | 1.6 | 9.7 | 0.00 | 0.00 | 0.00 | 19 | 997.7 |
| 20260508161504 | 26 | 68 | 3.2 | 11.3 | 0.00 | 0.00 | 0.00 | 19 | 997.7 |
| 20260508161004 | 25 | 80 | 3.2 | 11.3 | 0.00 | 0.00 | 0.00 | 19 | 997.7 |
| 20260508160505 | 25 | 77 | 3.2 | 9.7 | 0.00 | 0.00 | 0.00 | 19 | 997.8 |
| 20260508155504 | 25 | 62 | 1.6 | 8.0 | 0.00 | 0.00 | 0.00 | 19 | 997.7 |
| 20260508155004 | 25 | 38 | 0.0 | 6.4 | 0.00 | 0.00 | 0.00 | 19 | 997.7 |
| 20260508154504 | 24 | 58 | 0.0 | 4.8 | 0.00 | 0.00 | 0.00 | 19 | 997.7 |
| 20260508153503 | 23 | 47 | 1.6 | 8.0 | 0.00 | 0.00 | 0.00 | 20 | 997.8 |
| 20260508153004 | 23 | 42 | 1.6 | 8.0 | 0.00 | 0.00 | 0.00 | 21 | 997.8 |
| 20260508152504 | 23 | 56 | 1.6 | 8.0 | 0.00 | 0.00 | 0.00 | 21 | 998.0 |
| 20260508152004 | 22 | 46 | 1.6 | 8.0 | 0.00 | 0.00 | 0.00 | 22 | 998.0 |
| 20260508151505 | 22 | 46 | 1.6 | 8.0 | 0.00 | 0.00 | 0.00 | 22 | 998.1 |
| 20260508151004 | 22 | 71 | 3.2 | 8.0 | 0.00 | 0.00 | 0.00 | 23 | 998.1 |
| 20260508150005 | 21 | 60 | 3.2 | 9.7 | 0.00 | 0.00 | 0.00 | 24 | 998.1 |
| 20260508145504 | 21 | 55 | 3.2 | 9.7 | 0.00 | 0.00 | 0.00 | 24 | 998.0 |
| 20260508145004 | 21 | 53 | 3.2 | 9.7 | 0.00 | 0.00 | 0.00 | 24 | 997.9 |
| 20260508144504 | 21 | 51 | 4.8 | 9.7 | 0.00 | 0.00 | 0.00 | 25 | 998.0 |
| 20260508144004 | 20 | 42 | 4.8 | 9.7 | 0.00 | 0.00 | 0.00 | 25 | 998.0 |
| 20260508143504 | 20 | 35 | 3.2 | 9.7 | 0.00 | 0.00 | 0.00 | 26 | 998.1 |
| 20260508143004 | 20 | 35 | 0.0 | 8.0 | 0.00 | 0.00 | 0.00 | 26 | 998.1 |
| 20260508142504 | 20 | 49 | 0.0 | 6.4 | 0.00 | 0.00 | 0.00 | 27 | 998.1 |
| 20260508142004 | 20 | 52 | 1.6 | 8.0 | 0.00 | 0.00 | 0.00 | 28 | 998.1 |
| 20260508141004 | 20 | 56 | 4.8 | 9.7 | 0.00 | 0.00 | 0.00 | 28 | 998.1 |
| 20260508140504 | 20 | 51 | 3.2 | 9.7 | 0.00 | 0.00 | 0.00 | 28 | 998.0 |
| 20260508140005 | 20 | 39 | 1.6 | 8.0 | 0.00 | 0.00 | 0.00 | 29 | 997.9 |
| 20260508135504 | 20 | 0 | 0.0 | 0.0 | 0.00 | 0.00 | 0.00 | 30 | 997.8 |
| 20260508135003 | 20 | 24 | 0.0 | 4.8 | 0.00 | 0.00 | 0.00 | 30 | 997.7 |
| 20260508134503 | 20 | 24 | 0.0 | 4.8 | 0.00 | 0.00 | 0.00 | 31 | 997.6 |
| 20260508133504 | 20 | 347 | 1.6 | 6.4 | 0.00 | 0.00 | 0.00 | 31 | 997.5 |
| 20260508133004 | 19 | 347 | 1.6 | 6.4 | 0.00 | 0.00 | 0.00 | 31 | 997.5 |
| 20260508132504 | 19 | 26 | 0.0 | 1.6 | 0.00 | 0.00 | 0.00 | 32 | 997.4 |
| 20260508131003 | 18 | 0 | 0.0 | 0.0 | 0.00 | 0.00 | 0.00 | 33 | 997.3 |
| 20260508130503 | 18 | 0 | 0.0 | 0.0 | 0.00 | 0.00 | 0.00 | 34 | 997.2 |
| 20260508130005 | 18 | 0 | 0.0 | 0.0 | 0.00 | 0.00 | 0.00 | 35 | 997.2 |
| 20260508125004 | 18 | 0 | 0.0 | 0.0 | 0.00 | 0.00 | 0.00 | 35 | 997.0 |
| 20260508124503 | 18 | 0 | 0.0 | 0.0 | 0.00 | 0.00 | 0.00 | 35 | 996.9 |
| 20260508124003 | 18 | 0 | 0.0 | 0.0 | 0.00 | 0.00 | 0.00 | 35 | 996.7 |
| 20260508123504 | 18 | 0 | 0.0 | 0.0 | 0.00 | 0.00 | 0.00 | 36 | 996.7 |
| 20260508123004 | 17 | 0 | 0.0 | 0.0 | 0.00 | 0.00 | 0.00 | 36 | 996.7 |
| 20260508122504 | 17 | 0 | 0.0 | 0.0 | 0.00 | 0.00 | 0.00 | 36 | 996.7 |
| 20260508122005 | 17 | 0 | 0.0 | 0.0 | 0.00 | 0.00 | 0.00 | 35 | 996.6 |
| 20260508121504 | 17 | 0 | 0.0 | 0.0 | 0.00 | 0.00 | 0.00 | 35 | 996.7 |
| 20260508121003 | 17 | 0 | 0.0 | 0.0 | 0.00 | 0.00 | 0.00 | 35 | 996.7 |
| 20260508120504 | 17 | 358 | 1.6 | 8.0 | 0.00 | 0.00 | 0.00 | 35 | 996.7 |
| 20260508120004 | 17 | 1 | 1.6 | 8.0 | 0.00 | 0.00 | 0.00 | 35 | 996.8 |
| 20260508115503 | 17 | 4 | 0.0 | 8.0 | 0.00 | 0.00 | 0.00 | 35 | 996.8 |
| 20260508115004 | 17 | 349 | 0.0 | 3.2 | 0.00 | 0.00 | 0.00 | 35 | 997.0 |
| 20260508114505 | 17 | 8 | 1.6 | 6.4 | 0.00 | 0.00 | 0.00 | 35 | 997.0 |
| 20260508113004 | 17 | 4 | 1.6 | 9.7 | 0.00 | 0.00 | 0.00 | 36 | 997.1 |
| 20260508112004 | 16 | 19 | 0.0 | 4.8 | 0.00 | 0.00 | 0.00 | 36 | 997.1 |
| 20260508111504 | 16 | 12 | 1.6 | 6.4 | 0.00 | 0.00 | 0.00 | 37 | 997.2 |
| 20260508111004 | 16 | 15 | 1.6 | 6.4 | 0.00 | 0.00 | 0.00 | 37 | 997.1 |
| 20260508110004 | 16 | 20 | 0.0 | 3.2 | 0.00 | 0.00 | 0.00 | 38 | 996.8 |
| 20260508105503 | 16 | 20 | 0.0 | 4.8 | 0.00 | 0.00 | 0.00 | 38 | 996.7 |
| 20260508105003 | 16 | 20 | 1.6 | 4.8 | 0.00 | 0.00 | 0.00 | 38 | 996.8 |
| 20260508104504 | 17 | 21 | 0.0 | 3.2 | 0.00 | 0.00 | 0.00 | 37 | 996.8 |
| 20260508104003 | 17 | 20 | 0.0 | 3.2 | 0.00 | 0.00 | 0.00 | 36 | 996.7 |
| 20260508103004 | 17 | 0 | 0.0 | 0.0 | 0.00 | 0.00 | 0.00 | 36 | 996.9 |
| 20260508102504 | 17 | 0 | 0.0 | 0.0 | 0.00 | 0.00 | 0.00 | 35 | 996.8 |
| 20260508102004 | 17 | 0 | 0.0 | 0.0 | 0.00 | 0.00 | 0.00 | 35 | 996.7 |
| 20260508101504 | 18 | 0 | 0.0 | 0.0 | 0.00 | 0.00 | 0.00 | 35 | 996.7 |
| 20260508101003 | 18 | 0 | 0.0 | 0.0 | 0.00 | 0.00 | 0.00 | 35 | 996.6 |
| 20260508100504 | 18 | 0 | 0.0 | 0.0 | 0.00 | 0.00 | 0.00 | 35 | 996.6 |
| 20260508100004 | 18 | 0 | 0.0 | 0.0 | 0.00 | 0.00 | 0.00 | 34 | 996.6 |
| 20260508095504 | 18 | 0 | 0.0 | 0.0 | 0.00 | 0.00 | 0.00 | 33 | 996.5 |
| 20260508095004 | 18 | 0 | 0.0 | 0.0 | 0.00 | 0.00 | 0.00 | 34 | 996.4 |
| 20260508094504 | 18 | 0 | 0.0 | 0.0 | 0.00 | 0.00 | 0.00 | 34 | 996.2 |
| 20260508094004 | 18 | 0 | 0.0 | 0.0 | 0.00 | 0.00 | 0.00 | 33 | 996.3 |
| 20260508093504 | 18 | 0 | 0.0 | 0.0 | 0.00 | 0.00 | 0.00 | 32 | 996.4 |
| 20260508093004 | 19 | 0 | 0.0 | 0.0 | 0.00 | 0.00 | 0.00 | 32 | 996.4 |
| 20260508092005 | 19 | 0 | 0.0 | 0.0 | 0.00 | 0.00 | 0.00 | 31 | 996.5 |
| 20260508091505 | 20 | 0 | 0.0 | 0.0 | 0.00 | 0.00 | 0.00 | 31 | 996.6 |
| 20260508091004 | 20 | 0 | 0.0 | 0.0 | 0.00 | 0.00 | 0.00 | 31 | 996.6 |
| 20260508090505 | 20 | 0 | 0.0 | 0.0 | 0.00 | 0.00 | 0.00 | 31 | 996.5 |
| 20260508090006 | 20 | 0 | 0.0 | 0.0 | 0.00 | 0.00 | 0.00 | 31 | 996.5 |
| 20260508085505 | 20 | 0 | 0.0 | 0.0 | 0.00 | 0.00 | 0.00 | 31 | 996.6 |
| 20260508084505 | 20 | 0 | 0.0 | 0.0 | 0.00 | 0.00 | 0.00 | 31 | 996.6 |
| 20260508084005 | 20 | 0 | 0.0 | 0.0 | 0.00 | 0.00 | 0.00 | 31 | 996.7 |
| 20260508083505 | 20 | 0 | 0.0 | 0.0 | 0.00 | 0.00 | 0.00 | 31 | 996.8 |
| 20260508083005 | 20 | 0 | 0.0 | 0.0 | 0.00 | 0.00 | 0.00 | 31 | 996.9 |
| 20260508082505 | 20 | 0 | 0.0 | 0.0 | 0.00 | 0.00 | 0.00 | 30 | 996.9 |
| 20260508082005 | 20 | 0 | 0.0 | 0.0 | 0.00 | 0.00 | 0.00 | 30 | 997.0 |
| 20260508081505 | 20 | 0 | 0.0 | 0.0 | 0.00 | 0.00 | 0.00 | 30 | 997.1 |
| 20260508081005 | 20 | 0 | 0.0 | 0.0 | 0.00 | 0.00 | 0.00 | 30 | 997.1 |
| 20260508080505 | 21 | 0 | 0.0 | 0.0 | 0.00 | 0.00 | 0.00 | 30 | 997.1 |
| 20260508080005 | 21 | 0 | 0.0 | 0.0 | 0.00 | 0.00 | 0.00 | 30 | 997.1 |
| 20260508075505 | 21 | 0 | 0.0 | 0.0 | 0.00 | 0.00 | 0.00 | 30 | 997.1 |
| 20260508075004 | 21 | 0 | 0.0 | 0.0 | 0.00 | 0.00 | 0.00 | 29 | 997.1 |
| 20260508074005 | 21 | 0 | 0.0 | 0.0 | 0.00 | 0.00 | 0.00 | 29 | 997.2 |
| 20260508073505 | 21 | 0 | 0.0 | 0.0 | 0.00 | 0.00 | 0.00 | 28 | 997.2 |
| 20260508073005 | 21 | 0 | 0.0 | 0.0 | 0.00 | 0.00 | 0.00 | 27 | 997.2 |
| 20260508072005 | 22 | 0 | 0.0 | 0.0 | 0.00 | 0.00 | 0.00 | 28 | 997.2 |
| 20260508071505 | 22 | 61 | 0.0 | 6.4 | 0.00 | 0.00 | 0.00 | 28 | 997.2 |
| 20260508071005 | 22 | 95 | 1.6 | 8.0 | 0.00 | 0.00 | 0.00 | 27 | 997.2 |
| 20260508070505 | 22 | 134 | 3.2 | 11.3 | 0.00 | 0.00 | 0.00 | 28 | 997.2 |
| 20260508070006 | 22 | 235 | 3.2 | 17.7 | 0.00 | 0.00 | 0.00 | 27 | 997.1 |
| 20260508065505 | 22 | 296 | 4.8 | 25.7 | 0.00 | 0.00 | 0.00 | 27 | 997.0 |
| 20260508065004 | 22 | 299 | 8.0 | 27.4 | 0.00 | 0.00 | 0.00 | 27 | 996.8 |
| 20260508064504 | 22 | 310 | 11.3 | 27.4 | 0.00 | 0.00 | 0.00 | 27 | 996.7 |
| 20260508064005 | 22 | 308 | 9.7 | 27.4 | 0.00 | 0.00 | 0.00 | 27 | 996.7 |
| 20260508063505 | 23 | 308 | 3.2 | 22.5 | 0.00 | 0.00 | 0.00 | 26 | 996.8 |
| 20260508063005 | 23 | 36 | 0.0 | 6.4 | 0.00 | 0.00 | 0.00 | 25 | 996.8 |
| 20260508062004 | 23 | 300 | 6.4 | 27.4 | 0.00 | 0.00 | 0.00 | 25 | 996.6 |
| 20260508061505 | 23 | 301 | 11.3 | 27.4 | 0.00 | 0.00 | 0.00 | 25 | 996.6 |
| 20260508061005 | 23 | 306 | 16.1 | 37.0 | 0.00 | 0.00 | 0.00 | 26 | 996.7 |
| 20260508060505 | 23 | 306 | 14.5 | 37.0 | 0.00 | 0.00 | 0.00 | 25 | 996.7 |
| 20260508060005 | 23 | 304 | 11.3 | 35.4 | 0.00 | 0.00 | 0.00 | 25 | 996.8 |
| 20260508055505 | 23 | 304 | 6.4 | 35.4 | 0.00 | 0.00 | 0.00 | 24 | 996.7 |
| 20260508054504 | 23 | 0 | 0.0 | 0.0 | 0.00 | 0.00 | 0.00 | 24 | 997.0 |